Time;durP1;ratioP1;P1;durP2;ratioP2;P2;SDS_P1;SDS_P2;PMS_P1;PMS_P2;Temp;Humidity;BMP_temperature;BMP_pressure;BME280_temperature;BME280_humidity;BME280_pressure;Samples;Min_cycle;Max_cycle;Signal;HPM_P1;HPM_P2
2022/10/15 00:01:26;;;;;;;5.40;4.07;;;14.30;97.30;;;;;;5031832;28;20264;-88
2022/10/15 00:03:51;;;;;;;5.47;2.67;;;14.30;97.30;;;;;;5031366;28;20185;-87
2022/10/15 00:06:19;;;;;;;15.93;5.53;;;14.30;97.30;;;;;;5030935;28;20271;-86
2022/10/15 00:08:46;;;;;;;4.80;3.57;;;14.40;97.30;;;;;;5031115;28;20180;-87
2022/10/15 00:11:20;;;;;;;5.90;3.27;;;14.40;97.30;;;;;;5030904;28;20798;-88
2022/10/15 00:13:45;;;;;;;7.27;5.10;;;14.40;97.30;;;;;;5030966;28;20419;-89
2022/10/15 00:16:14;;;;;;;28.73;3.80;;;14.40;97.30;;;;;;5030801;28;20418;-88
2022/10/15 00:18:40;;;;;;;7.03;4.50;;;14.40;97.30;;;;;;5031249;28;20326;-88
2022/10/15 00:21:08;;;;;;;3.27;3.07;;;14.40;97.30;;;;;;5031393;28;20427;-88
2022/10/15 00:23:34;;;;;;;2.23;2.07;;;14.40;97.30;;;;;;5030659;28;20474;-87
2022/10/15 00:26:01;;;;;;;5.07;2.93;;;14.40;97.30;;;;;;5032170;28;20430;-88
2022/10/15 00:28:27;;;;;;;2.60;2.40;;;14.40;97.30;;;;;;5031312;28;20437;-86
2022/10/15 00:30:59;;;;;;;3.00;2.73;;;14.40;97.30;;;;;;5030968;28;20917;-88
2022/10/15 00:33:25;;;;;;;2.90;2.73;;;14.50;97.30;;;;;;5031230;28;20749;-87
2022/10/15 00:35:58;;;;;;;4.83;3.60;;;14.40;97.30;;;;;;5030895;28;20427;-87
2022/10/15 00:38:23;;;;;;;6.73;4.00;;;14.50;97.30;;;;;;5030945;28;20173;-87
2022/10/15 00:40:49;;;;;;;3.43;2.67;;;14.50;97.30;;;;;;5030860;28;20458;-86
2022/10/15 00:43:14;;;;;;;7.13;3.50;;;14.50;97.30;;;;;;5031044;28;20196;-87
2022/10/15 00:45:40;;;;;;;3.87;2.67;;;14.50;97.30;;;;;;5032242;28;20185;-87
2022/10/15 00:48:06;;;;;;;2.50;2.00;;;14.50;97.30;;;;;;5031245;28;20231;-86
2022/10/15 00:50:33;;;;;;;4.83;2.87;;;14.50;97.30;;;;;;5032340;28;20217;-88
2022/10/15 00:53:03;;;;;;;7.20;3.50;;;14.50;97.30;;;;;;5030611;28;20446;-85
2022/10/15 00:55:36;;;;;;;2.33;2.13;;;14.50;97.30;;;;;;5031267;28;20449;-87
2022/10/15 00:58:08;;;;;;;5.30;2.20;;;14.50;97.30;;;;;;5056615;28;20475;-89
2022/10/15 01:00:34;;;;;;;7.20;3.47;;;14.50;97.30;;;;;;5060310;28;20446;-88
2022/10/15 01:03:00;;;;;;;4.40;3.40;;;14.60;97.30;;;;;;5060791;28;20466;-85
2022/10/15 01:05:25;;;;;;;6.63;3.07;;;14.60;97.30;;;;;;5037888;28;20183;-86
2022/10/15 01:07:51;;;;;;;2.80;2.60;;;14.60;97.30;;;;;;5033980;28;20239;-87
2022/10/15 01:10:21;;;;;;;4.53;3.87;;;14.60;97.30;;;;;;5034547;28;20430;-87
2022/10/15 01:13:04;;;;;;;3.73;2.87;;;14.60;97.30;;;;;;5035575;28;20334;-86
2022/10/15 01:15:57;;;;;;;14.60;2.70;;;14.60;97.30;;;;;;5034214;28;20580;-88
2022/10/15 01:18:29;;;;;;;2.43;2.00;;;14.60;97.30;;;;;;5034943;28;20443;-86
2022/10/15 01:21:24;;;;;;;3.10;1.90;;;14.60;97.30;;;;;;5034353;28;20504;-86
2022/10/15 01:24:34;;;;;;;3.23;1.80;;;14.70;97.30;;;;;;5025367;28;20467;-83
2022/10/15 01:27:20;;;;;;;2.47;2.13;;;14.70;97.30;;;;;;5035905;28;20518;-87
2022/10/15 01:30:22;;;;;;;2.70;2.10;;;14.80;97.30;;;;;;5031696;28;20476;-86
2022/10/15 01:33:08;;;;;;;1.80;1.70;;;14.80;97.30;;;;;;5024939;28;20445;-86
2022/10/15 01:35:50;;;;;;;1.53;1.43;;;14.80;97.30;;;;;;5031975;28;20423;-87
2022/10/15 01:38:29;;;;;;;2.70;2.50;;;14.80;97.30;;;;;;5031551;28;20925;-87
2022/10/15 01:40:59;;;;;;;2.17;2.00;;;14.80;97.30;;;;;;5033497;28;20589;-85
2022/10/15 01:43:47;;;;;;;2.13;2.03;;;14.80;97.30;;;;;;5033705;28;20514;-86
2022/10/15 01:46:20;;;;;;;13.63;3.10;;;14.80;97.30;;;;;;5033223;28;20857;-86
2022/10/15 01:48:47;;;;;;;7.30;2.97;;;14.80;97.30;;;;;;5033608;28;20489;-86
2022/10/15 01:51:16;;;;;;;3.60;3.27;;;14.80;97.30;;;;;;5033302;28;20423;-85
2022/10/15 01:53:43;;;;;;;2.07;1.93;;;14.80;97.30;;;;;;5033449;28;20426;-86
2022/10/15 01:56:14;;;;;;;2.40;2.20;;;14.80;97.30;;;;;;5034568;28;20411;-87
2022/10/15 01:58:43;;;;;;;2.70;2.50;;;14.80;97.30;;;;;;5033292;28;20411;-87
2022/10/15 02:01:09;;;;;;;4.23;1.87;;;14.80;97.30;;;;;;5034079;28;20495;-86
2022/10/15 02:03:49;;;;;;;4.30;2.10;;;14.70;97.30;;;;;;5032923;28;20454;-87
2022/10/15 02:06:33;;;;;;;1.60;1.50;;;14.70;97.30;;;;;;5032886;28;20411;-87
2022/10/15 02:09:38;;;;;;;3.10;2.33;;;14.80;97.30;;;;;;5032510;28;20513;-87
2022/10/15 02:12:25;;;;;;;10.90;5.13;;;14.80;97.30;;;;;;5022319;28;20439;-85
2022/10/15 02:15:18;;;;;;;10.33;2.50;;;14.70;97.30;;;;;;5033025;28;20415;-86
2022/10/15 02:18:04;;;;;;;2.20;2.10;;;14.80;97.30;;;;;;5034202;28;20466;-87
2022/10/15 02:20:47;;;;;;;2.53;2.33;;;14.70;97.30;;;;;;5032740;28;20514;-86
2022/10/15 02:23:25;;;;;;;3.97;2.60;;;14.70;97.30;;;;;;5032495;28;20533;-87
2022/10/15 02:25:53;;;;;;;2.40;2.20;;;14.70;97.30;;;;;;5032665;28;20462;-85
2022/10/15 02:28:24;;;;;;;2.13;2.00;;;14.70;97.30;;;;;;5032826;28;20424;-85
2022/10/15 02:30:51;;;;;;;3.20;2.20;;;14.70;97.30;;;;;;5032933;28;20415;-84
2022/10/15 02:33:19;;;;;;;2.40;2.23;;;14.70;97.30;;;;;;5032932;28;20444;-87
2022/10/15 02:35:46;;;;;;;2.80;2.17;;;14.70;97.30;;;;;;5033068;28;20986;-87
2022/10/15 02:38:14;;;;;;;4.77;2.73;;;14.70;97.30;;;;;;5034745;28;20419;-83
2022/10/15 02:40:42;;;;;;;3.30;2.70;;;14.70;97.30;;;;;;5033300;28;20466;-87
2022/10/15 02:43:10;;;;;;;1.97;1.90;;;14.70;97.30;;;;;;5032892;28;20444;-86
2022/10/15 02:45:37;;;;;;;1.97;1.73;;;14.70;97.30;;;;;;5034242;28;20445;-86
2022/10/15 02:48:02;;;;;;;4.13;3.23;;;14.70;97.30;;;;;;5032658;28;20449;-85
2022/10/15 02:50:28;;;;;;;5.03;3.00;;;14.80;97.30;;;;;;5033786;28;20430;-87
2022/10/15 02:52:54;;;;;;;3.07;1.90;;;14.70;97.30;;;;;;5032858;28;20692;-84
2022/10/15 02:55:21;;;;;;;2.60;2.40;;;14.70;97.30;;;;;;5032094;28;20192;-87
2022/10/15 02:57:47;;;;;;;2.00;1.90;;;14.70;97.30;;;;;;5032145;28;20182;-87
2022/10/15 03:00:13;;;;;;;3.43;2.37;;;14.70;97.30;;;;;;5032149;28;20831;-86
2022/10/15 03:02:39;;;;;;;2.60;2.10;;;14.70;97.30;;;;;;5032013;28;20220;-86
2022/10/15 03:05:04;;;;;;;2.40;1.80;;;14.80;97.30;;;;;;5031964;28;21007;-87
2022/10/15 03:07:30;;;;;;;1.43;1.33;;;14.80;97.30;;;;;;5033072;28;20177;-87
2022/10/15 03:09:57;;;;;;;1.63;1.37;;;14.80;97.30;;;;;;5033513;28;20172;-87
2022/10/15 03:12:24;;;;;;;3.20;2.17;;;14.80;97.30;;;;;;5031766;28;20201;-87
2022/10/15 03:14:50;;;;;;;4.83;1.93;;;14.80;97.30;;;;;;5031768;28;20427;-85
2022/10/15 03:17:16;;;;;;;10.13;3.50;;;14.80;97.30;;;;;;5032012;28;20485;-85
2022/10/15 03:19:41;;;;;;;1.73;1.43;;;14.80;97.30;;;;;;5031206;28;20200;-86
2022/10/15 03:22:07;;;;;;;3.30;2.50;;;14.80;97.30;;;;;;5031301;28;20666;-86
2022/10/15 03:24:32;;;;;;;2.53;2.07;;;14.80;97.30;;;;;;5031732;28;20659;-87
2022/10/15 03:26:58;;;;;;;1.90;1.70;;;14.80;97.30;;;;;;5031482;28;20550;-87
2022/10/15 03:29:23;;;;;;;9.17;3.03;;;14.80;97.30;;;;;;5031667;28;20560;-86
2022/10/15 03:31:49;;;;;;;1.60;1.50;;;14.80;97.30;;;;;;5032534;28;20204;-86
2022/10/15 03:34:15;;;;;;;1.70;1.60;;;14.80;97.30;;;;;;5032735;28;20177;-86
2022/10/15 03:36:40;;;;;;;3.03;2.60;;;14.80;97.30;;;;;;5031737;28;20172;-86
2022/10/15 03:39:07;;;;;;;4.00;2.70;;;14.80;97.30;;;;;;5031352;28;20197;-85
2022/10/15 03:41:33;;;;;;;1.70;1.60;;;14.70;97.30;;;;;;5030910;28;20226;-87
2022/10/15 03:44:03;;;;;;;2.30;2.13;;;14.70;97.30;;;;;;5030950;28;20435;-87
2022/10/15 03:46:29;;;;;;;1.40;1.30;;;14.70;97.30;;;;;;5031145;28;20279;-86
2022/10/15 03:48:56;;;;;;;5.00;2.80;;;14.70;97.30;;;;;;5032538;28;20511;-87
2022/10/15 03:51:22;;;;;;;1.20;1.10;;;14.80;97.30;;;;;;5031270;28;20230;-86
2022/10/15 03:53:48;;;;;;;2.50;1.97;;;14.80;97.30;;;;;;5031259;28;20782;-86
2022/10/15 03:56:14;;;;;;;1.77;1.67;;;14.70;97.30;;;;;;5031296;28;20169;-87
2022/10/15 03:58:40;;;;;;;2.10;1.57;;;14.70;97.30;;;;;;5031085;28;20745;-87
2022/10/15 04:01:10;;;;;;;2.93;1.83;;;14.70;97.30;;;;;;5032052;28;20187;-86
2022/10/15 04:03:35;;;;;;;2.90;1.30;;;14.70;97.30;;;;;;5030656;28;20550;-88
2022/10/15 04:06:01;;;;;;;1.47;1.40;;;14.70;97.30;;;;;;5027393;28;20447;-86
2022/10/15 04:08:26;;;;;;;2.70;2.53;;;14.70;97.30;;;;;;5034233;28;20184;-86
2022/10/15 04:10:53;;;;;;;1.70;1.60;;;14.70;97.30;;;;;;5030998;28;20179;-85
2022/10/15 04:13:18;;;;;;;3.20;2.00;;;14.70;97.30;;;;;;5030994;28;20189;-86
2022/10/15 04:15:44;;;;;;;2.23;2.10;;;14.60;97.30;;;;;;5031501;28;21123;-89
2022/10/15 04:18:10;;;;;;;2.40;1.73;;;14.60;97.30;;;;;;5031593;28;20547;-86
2022/10/15 04:20:36;;;;;;;1.60;1.50;;;14.60;97.30;;;;;;5038530;28;20211;-92
2022/10/15 04:23:01;;;;;;;2.57;2.17;;;14.60;97.30;;;;;;5054134;28;20467;-89
2022/10/15 04:25:27;;;;;;;1.87;1.77;;;14.60;97.30;;;;;;5054640;28;20219;-88
2022/10/15 04:27:52;;;;;;;4.93;2.33;;;14.60;97.30;;;;;;5050869;28;20208;-87
2022/10/15 04:30:18;;;;;;;2.70;2.50;;;14.60;97.30;;;;;;5036729;28;20292;-87
2022/10/15 04:32:43;;;;;;;1.37;1.37;;;14.50;97.30;;;;;;5033568;28;20295;-87
2022/10/15 04:35:09;;;;;;;7.87;2.23;;;14.50;97.30;;;;;;5035144;28;20184;-87
2022/10/15 04:37:35;;;;;;;2.07;1.93;;;14.50;97.30;;;;;;5034821;28;20191;-86
2022/10/15 04:40:02;;;;;;;3.73;2.20;;;14.50;97.30;;;;;;5034641;28;20207;-86
2022/10/15 04:42:28;;;;;;;2.53;1.93;;;14.50;97.30;;;;;;5034598;28;20527;-87
2022/10/15 04:44:54;;;;;;;3.47;2.27;;;14.50;97.30;;;;;;5034594;28;20430;-86
2022/10/15 04:47:19;;;;;;;1.37;1.27;;;14.50;97.30;;;;;;5034194;28;20431;-86
2022/10/15 04:49:45;;;;;;;3.20;2.63;;;14.50;97.30;;;;;;5034210;28;20861;-86
2022/10/15 04:52:10;;;;;;;1.20;1.00;;;14.50;97.30;;;;;;5034343;28;20295;-87
2022/10/15 04:54:36;;;;;;;1.30;1.20;;;14.40;97.30;;;;;;5034092;28;20291;-87
2022/10/15 04:57:03;;;;;;;2.20;1.87;;;14.40;97.30;;;;;;5034580;28;20632;-87
2022/10/15 04:59:28;;;;;;;1.73;1.70;;;14.40;97.30;;;;;;5034211;28;20211;-87
2022/10/15 05:01:54;;;;;;;2.43;2.10;;;14.30;97.30;;;;;;5048064;28;20439;-90
2022/10/15 05:04:19;;;;;;;1.70;1.60;;;14.30;97.30;;;;;;5060107;28;20176;-88
2022/10/15 05:06:45;;;;;;;4.83;2.73;;;14.30;97.30;;;;;;5060664;28;20177;-90
2022/10/15 05:09:11;;;;;;;1.90;1.60;;;14.30;97.30;;;;;;5038270;28;20639;-86
2022/10/15 05:11:37;;;;;;;3.07;2.87;;;14.30;97.30;;;;;;5034451;28;20197;-87
2022/10/15 05:14:03;;;;;;;2.17;1.80;;;14.30;97.30;;;;;;5034179;28;20473;-87
2022/10/15 05:16:30;;;;;;;1.63;1.33;;;14.30;97.30;;;;;;5034099;28;20190;-86
2022/10/15 05:18:58;;;;;;;1.83;1.73;;;14.30;97.30;;;;;;5033775;28;20423;-87
2022/10/15 05:21:24;;;;;;;2.50;1.67;;;14.30;97.30;;;;;;5033599;28;20416;-86
2022/10/15 05:23:49;;;;;;;1.63;1.40;;;14.30;97.30;;;;;;5034842;28;20471;-85
2022/10/15 05:26:18;;;;;;;1.37;1.27;;;14.30;97.30;;;;;;5035151;28;20415;-85
2022/10/15 05:28:43;;;;;;;1.60;1.50;;;14.30;97.30;;;;;;5033824;28;20180;-85
2022/10/15 05:31:11;;;;;;;1.77;1.70;;;14.30;97.30;;;;;;5033894;28;20446;-85
2022/10/15 05:33:38;;;;;;;3.30;2.20;;;14.30;97.30;;;;;;5034875;28;20671;-86
2022/10/15 05:36:20;;;;;;;2.03;1.93;;;14.30;97.30;;;;;;5033736;28;20415;-86
2022/10/15 05:38:47;;;;;;;2.50;2.07;;;14.30;97.30;;;;;;5033579;28;20420;-85
2022/10/15 05:41:13;;;;;;;3.27;2.13;;;14.30;97.30;;;;;;5033658;28;20419;-86
2022/10/15 05:43:39;;;;;;;1.93;1.87;;;14.30;97.30;;;;;;5033584;28;20411;-86
2022/10/15 05:46:05;;;;;;;1.70;1.60;;;14.30;97.30;;;;;;5033423;28;20729;-85
2022/10/15 05:48:31;;;;;;;2.43;2.23;;;14.30;97.30;;;;;;5033583;28;20451;-85
2022/10/15 05:51:04;;;;;;;1.83;1.73;;;14.30;97.30;;;;;;5033525;28;20186;-85
2022/10/15 05:53:30;;;;;;;1.80;1.30;;;14.30;97.30;;;;;;5033140;28;20474;-86
2022/10/15 05:55:57;;;;;;;1.47;1.20;;;14.30;97.30;;;;;;5033331;28;20509;-86
2022/10/15 05:58:27;;;;;;;4.87;2.77;;;14.30;97.30;;;;;;5033269;28;20778;-86
2022/10/15 06:00:59;;;;;;;4.30;1.97;;;14.30;97.30;;;;;;5034781;28;20455;-86
2022/10/15 06:03:25;;;;;;;1.67;1.57;;;14.30;97.30;;;;;;5033245;28;20976;-86
2022/10/15 06:05:51;;;;;;;2.57;2.40;;;14.40;97.30;;;;;;5032843;28;20422;-86
2022/10/15 06:08:17;;;;;;;1.60;1.50;;;14.30;97.30;;;;;;5032792;28;20411;-85
2022/10/15 06:10:43;;;;;;;2.93;1.33;;;14.40;97.30;;;;;;5033106;28;20473;-85
2022/10/15 06:13:09;;;;;;;1.50;1.40;;;14.40;97.30;;;;;;5033081;28;20436;-86
2022/10/15 06:15:37;;;;;;;3.83;1.77;;;14.40;97.30;;;;;;5033190;28;20699;-86
2022/10/15 06:18:03;;;;;;;1.30;1.20;;;14.40;97.30;;;;;;5032903;28;20176;-86
2022/10/15 06:20:28;;;;;;;2.20;2.00;;;14.40;97.30;;;;;;5032768;28;20517;-86
2022/10/15 06:22:58;;;;;;;2.60;1.57;;;14.40;97.30;;;;;;5032677;28;20598;-85
2022/10/15 06:25:24;;;;;;;2.50;1.57;;;14.40;97.30;;;;;;5032792;28;20176;-86
2022/10/15 06:27:49;;;;;;;1.70;1.67;;;14.50;97.30;;;;;;5032772;28;20424;-86
2022/10/15 06:30:15;;;;;;;1.47;1.40;;;14.50;97.30;;;;;;5032716;28;20433;-86
2022/10/15 06:32:49;;;;;;;2.17;1.70;;;14.50;97.30;;;;;;5033815;28;20698;-86
2022/10/15 06:35:16;;;;;;;2.60;1.63;;;14.60;97.30;;;;;;5032784;28;20255;-86
2022/10/15 06:37:41;;;;;;;1.80;1.70;;;14.60;97.30;;;;;;5032422;28;20514;-86
2022/10/15 06:40:08;;;;;;;4.17;3.50;;;14.60;97.30;;;;;;5033785;28;20538;-86
2022/10/15 06:42:33;;;;;;;1.73;1.47;;;14.70;97.30;;;;;;5032477;28;20207;-86
2022/10/15 06:44:59;;;;;;;1.53;1.43;;;14.70;97.30;;;;;;5032132;28;20419;-85
2022/10/15 06:47:24;;;;;;;1.10;1.00;;;14.80;97.30;;;;;;5032722;28;20187;-85
2022/10/15 06:49:50;;;;;;;1.63;1.50;;;14.80;97.30;;;;;;5032012;28;20184;-86
2022/10/15 06:52:15;;;;;;;1.30;1.20;;;14.80;97.30;;;;;;5031781;28;20192;-86
2022/10/15 06:54:41;;;;;;;3.50;2.70;;;14.90;97.30;;;;;;5031785;28;20181;-85
2022/10/15 06:57:06;;;;;;;4.13;3.13;;;14.90;97.30;;;;;;5031895;28;20226;-86
2022/10/15 06:59:32;;;;;;;1.27;1.27;;;15.00;97.30;;;;;;5031795;28;20200;-86
2022/10/15 07:01:57;;;;;;;2.70;1.70;;;15.00;97.30;;;;;;5032173;28;20200;-86
2022/10/15 07:04:23;;;;;;;3.13;2.07;;;15.10;97.30;;;;;;5031953;28;20180;-86
2022/10/15 07:06:49;;;;;;;1.67;1.53;;;15.10;97.30;;;;;;5033652;28;20180;-85
2022/10/15 07:09:14;;;;;;;1.20;1.10;;;15.10;97.30;;;;;;5032213;28;20184;-86
2022/10/15 07:11:40;;;;;;;2.17;1.77;;;15.10;97.30;;;;;;5031801;28;20211;-86
2022/10/15 07:14:06;;;;;;;1.70;1.70;;;15.20;97.30;;;;;;5031412;28;20185;-86
2022/10/15 07:16:31;;;;;;;2.50;1.40;;;15.20;97.30;;;;;;5031723;28;20426;-86
2022/10/15 07:18:57;;;;;;;1.87;1.67;;;15.20;97.30;;;;;;5031676;28;20181;-86
2022/10/15 07:21:23;;;;;;;5.90;3.00;;;15.20;97.30;;;;;;5031677;28;20184;-86
2022/10/15 07:23:48;;;;;;;4.83;2.10;;;15.20;97.30;;;;;;5031737;28;20731;-86
2022/10/15 07:26:14;;;;;;;1.23;1.13;;;15.30;97.30;;;;;;5031758;28;20184;-85
2022/10/15 07:28:40;;;;;;;2.90;2.03;;;15.30;97.30;;;;;;5031776;28;20176;-86
2022/10/15 07:31:07;;;;;;;1.27;1.17;;;15.30;97.30;;;;;;5031644;28;20183;-86
2022/10/15 07:33:33;;;;;;;1.63;1.53;;;15.40;97.30;;;;;;5032905;28;20697;-85
2022/10/15 07:36:03;;;;;;;0.90;0.80;;;15.40;97.30;;;;;;5031581;28;20857;-86
2022/10/15 07:38:29;;;;;;;1.63;1.53;;;15.40;97.30;;;;;;5031415;28;20423;-85
2022/10/15 07:40:59;;;;;;;1.93;1.30;;;15.50;97.30;;;;;;5030043;28;20474;-87
2022/10/15 07:43:24;;;;;;;1.87;1.77;;;15.50;97.30;;;;;;5030801;28;20385;-89
2022/10/15 07:45:50;;;;;;;1.30;1.20;;;15.50;97.30;;;;;;5016347;28;20478;-86
2022/10/15 07:48:16;;;;;;;1.40;1.30;;;15.50;97.30;;;;;;5029286;28;20196;-85
2022/10/15 07:50:41;;;;;;;2.03;1.60;;;15.60;97.30;;;;;;5029915;28;20659;-87
2022/10/15 07:53:07;;;;;;;1.67;1.53;;;15.70;97.30;;;;;;5029921;28;20200;-87
2022/10/15 07:55:33;;;;;;;4.57;2.80;;;15.70;97.30;;;;;;5029706;28;20187;-86
2022/10/15 07:57:59;;;;;;;2.20;1.43;;;15.80;97.30;;;;;;5029654;28;20176;-86
2022/10/15 08:00:25;;;;;;;1.57;1.53;;;15.80;97.30;;;;;;5029219;28;20208;-87
2022/10/15 08:02:50;;;;;;;1.60;1.50;;;15.90;97.30;;;;;;5029455;28;20196;-87
2022/10/15 08:05:16;;;;;;;1.40;1.10;;;15.90;97.30;;;;;;5030634;28;20457;-87
2022/10/15 08:07:42;;;;;;;1.10;1.00;;;15.90;97.30;;;;;;5029571;28;20689;-86
2022/10/15 08:10:09;;;;;;;4.23;2.17;;;16.00;97.30;;;;;;5029789;28;20659;-87
2022/10/15 08:12:35;;;;;;;2.57;1.60;;;16.00;97.30;;;;;;5029135;28;20431;-87
2022/10/15 08:15:01;;;;;;;4.23;2.50;;;16.00;97.30;;;;;;5029238;28;20976;-87
2022/10/15 08:17:26;;;;;;;1.53;1.43;;;16.00;97.30;;;;;;5029320;28;20446;-86
2022/10/15 08:19:52;;;;;;;1.33;1.30;;;16.00;97.30;;;;;;5029204;28;20211;-87
2022/10/15 08:22:18;;;;;;;3.73;2.17;;;16.00;97.30;;;;;;5029119;28;20635;-87
2022/10/15 08:24:43;;;;;;;2.70;1.93;;;16.00;97.30;;;;;;5030728;28;20203;-87
2022/10/15 08:27:09;;;;;;;1.30;1.20;;;16.00;97.30;;;;;;5029452;28;20202;-87
2022/10/15 08:29:34;;;;;;;1.67;1.63;;;16.00;97.30;;;;;;5029439;28;20208;-86
2022/10/15 08:32:00;;;;;;;1.67;1.57;;;16.00;97.30;;;;;;5029641;28;20208;-87
2022/10/15 08:34:26;;;;;;;1.33;1.33;;;16.00;97.30;;;;;;5029518;28;20263;-86
2022/10/15 08:36:51;;;;;;;1.40;1.30;;;16.10;97.30;;;;;;5029541;28;20647;-86
2022/10/15 08:39:17;;;;;;;1.17;1.07;;;16.20;97.30;;;;;;5030627;28;20671;-86
2022/10/15 08:41:47;;;;;;;1.00;0.90;;;16.30;97.30;;;;;;5029004;28;20319;-88
2022/10/15 08:44:27;;;;;;;1.30;1.20;;;16.40;97.30;;;;;;5029538;28;20187;-87
2022/10/15 08:47:07;;;;;;;2.07;1.40;;;16.50;97.30;;;;;;5030306;28;20809;-87
2022/10/15 08:49:48;;;;;;;1.37;1.27;;;16.70;97.30;;;;;;5029527;28;21046;-86
2022/10/15 08:52:47;;;;;;;2.40;1.20;;;16.90;97.30;;;;;;5029073;28;20581;-86
2022/10/15 08:55:16;;;;;;;1.47;1.37;;;16.90;97.30;;;;;;5029531;28;20427;-86
2022/10/15 08:58:22;;;;;;;2.30;1.93;;;17.00;97.30;;;;;;5029668;28;20645;-86
2022/10/15 09:01:10;;;;;;;1.10;1.00;;;17.10;97.30;;;;;;5029172;28;20450;-87
2022/10/15 09:03:54;;;;;;;1.63;1.47;;;17.30;97.30;;;;;;5029822;28;20462;-89
2022/10/15 09:06:28;;;;;;;2.10;1.10;;;17.30;97.30;;;;;;5056047;28;20431;-89
2022/10/15 09:09:06;;;;;;;1.00;0.90;;;17.40;97.30;;;;;;5055407;28;20518;-93
2022/10/15 09:12:01;;;;;;;1.07;1.03;;;17.40;97.30;;;;;;5052585;28;20498;-86
2022/10/15 09:14:34;;;;;;;2.53;1.57;;;17.50;97.30;;;;;;5030209;28;20445;-88
2022/10/15 09:17:05;;;;;;;1.33;1.23;;;17.50;97.30;;;;;;5028898;28;20425;-86
2022/10/15 09:19:33;;;;;;;1.10;1.00;;;17.50;97.30;;;;;;5031149;28;20870;-87
2022/10/15 09:22:01;;;;;;;1.13;1.03;;;17.50;97.30;;;;;;5032461;28;20470;-89
2022/10/15 09:24:29;;;;;;;1.13;1.03;;;17.50;97.30;;;;;;5032540;28;20421;-87
2022/10/15 09:27:01;;;;;;;1.17;1.07;;;17.50;97.30;;;;;;5032668;28;20422;-87
2022/10/15 09:29:43;;;;;;;1.20;1.10;;;17.50;97.30;;;;;;5033885;28;20407;-88
2022/10/15 09:32:33;;;;;;;1.00;0.90;;;17.60;97.30;;;;;;5032272;28;20960;-87
2022/10/15 09:35:19;;;;;;;2.00;1.33;;;17.70;97.30;;;;;;5033107;28;20415;-87
2022/10/15 09:38:03;;;;;;;1.33;1.27;;;17.70;97.30;;;;;;5048286;28;20451;-89
2022/10/15 09:41:09;;;;;;;1.20;1.10;;;17.70;97.30;;;;;;5056541;28;20542;-91
2022/10/15 09:43:39;;;;;;;1.63;1.53;;;17.70;97.30;;;;;;5023275;28;20435;-89
2022/10/15 09:46:05;;;;;;;1.00;0.90;;;17.70;97.30;;;;;;5043959;28;20421;-87
2022/10/15 09:48:37;;;;;;;1.63;1.30;;;17.60;97.30;;;;;;5032217;28;20522;-87
2022/10/15 09:51:24;;;;;;;1.33;1.00;;;17.70;97.30;;;;;;5032653;28;20193;-87
2022/10/15 09:54:14;;;;;;;1.67;1.47;;;17.70;97.30;;;;;;5034802;28;20456;-87
2022/10/15 09:56:46;;;;;;;1.53;1.20;;;17.70;97.30;;;;;;5034574;28;20462;-88
2022/10/15 09:59:17;;;;;;;1.10;0.93;;;17.80;97.30;;;;;;5032898;28;20836;-87
2022/10/15 10:02:01;;;;;;;1.10;1.00;;;17.80;97.30;;;;;;5032152;28;20439;-86
2022/10/15 10:04:29;;;;;;;1.20;1.10;;;18.00;97.30;;;;;;5032232;28;20415;-87
2022/10/15 10:06:58;;;;;;;1.10;1.00;;;18.10;97.30;;;;;;5032031;28;20462;-88
2022/10/15 10:09:34;;;;;;;1.20;1.10;;;18.20;97.30;;;;;;5032163;28;20427;-88
2022/10/15 10:12:03;;;;;;;1.00;0.90;;;18.20;97.30;;;;;;5031569;28;20614;-87
2022/10/15 10:14:44;;;;;;;2.40;1.97;;;18.30;97.30;;;;;;5031858;28;20437;-87
2022/10/15 10:17:19;;;;;;;1.10;1.00;;;18.30;97.30;;;;;;5031431;28;20798;-86
2022/10/15 10:20:01;;;;;;;1.00;0.80;;;18.40;97.30;;;;;;5031542;28;20462;-87
2022/10/15 10:22:27;;;;;;;3.97;1.47;;;18.40;97.30;;;;;;5031139;28;20463;-87
2022/10/15 10:24:52;;;;;;;1.87;1.10;;;18.50;97.30;;;;;;5031296;28;20502;-88
2022/10/15 10:27:24;;;;;;;0.90;0.80;;;18.50;97.30;;;;;;5031055;28;20181;-87
2022/10/15 10:29:58;;;;;;;1.00;0.90;;;18.40;97.30;;;;;;5031116;28;20207;-89
2022/10/15 10:32:32;;;;;;;1.30;1.20;;;18.50;97.30;;;;;;5031299;28;20435;-85
2022/10/15 10:35:02;;;;;;;1.30;1.20;;;18.60;97.30;;;;;;5031071;28;20414;-86
2022/10/15 10:37:39;;;;;;;1.17;1.00;;;18.70;97.30;;;;;;5031310;28;20826;-87
2022/10/15 10:40:44;;;;;;;1.00;0.90;;;19.00;97.30;;;;;;5031668;28;20478;-88
2022/10/15 10:43:16;;;;;;;1.10;1.00;;;19.20;97.30;;;;;;5029347;28;20442;-87
2022/10/15 10:45:58;;;;;;;0.70;0.70;;;19.50;97.30;;;;;;5031352;28;20422;-87
2022/10/15 10:48:44;;;;;;;0.90;0.80;;;19.80;97.30;;;;;;5031293;28;20428;-88
2022/10/15 10:51:14;;;;;;;0.90;0.80;;;19.70;97.30;;;;;;5031146;28;20425;-87
2022/10/15 10:53:59;;;;;;;1.10;1.00;;;19.70;97.30;;;;;;5031066;28;20954;-87
2022/10/15 10:56:37;;;;;;;1.10;1.00;;;19.70;97.30;;;;;;5031156;28;20837;-88
2022/10/15 10:59:14;;;;;;;0.93;0.83;;;19.80;97.30;;;;;;5030939;28;20932;-86
2022/10/15 11:01:39;;;;;;;1.20;1.10;;;19.80;97.30;;;;;;5030928;28;20501;-87
2022/10/15 11:04:12;;;;;;;1.00;0.90;;;20.00;97.30;;;;;;5031367;28;20811;-88
2022/10/15 11:06:51;;;;;;;0.90;0.80;;;20.00;97.20;;;;;;5030550;28;20175;-87
2022/10/15 11:09:54;;;;;;;1.30;1.20;;;20.10;97.30;;;;;;5030922;28;20411;-87
2022/10/15 11:15:53;;;;;;;1.00;0.90;;;19.80;97.30;;;;;;5030577;28;20422;-87
2022/10/15 11:18:54;;;;;;;1.17;1.07;;;19.50;97.30;;;;;;5030908;28;21006;-89
2022/10/15 11:27:47;;;;;;;1.30;1.20;;;19.10;97.30;;;;;;5014757;28;20472;-92
2022/10/15 11:30:52;;;;;;;1.00;0.90;;;19.10;97.30;;;;;;4998037;28;20470;-92
2022/10/15 11:33:40;;;;;;;1.27;1.17;;;19.10;97.30;;;;;;4982581;28;20587;-93
2022/10/15 11:36:34;;;;;;;0.93;0.83;;;19.00;97.30;;;;;;4978015;28;20425;-94
2022/10/15 11:39:28;;;;;;;1.47;1.37;;;18.90;97.30;;;;;;4977686;28;20429;-93
2022/10/15 11:42:17;;;;;;;1.20;1.10;;;19.00;97.30;;;;;;4956549;28;20421;-92
2022/10/15 11:45:02;;;;;;;1.07;0.97;;;19.10;97.30;;;;;;4976133;28;20480;-92
2022/10/15 11:47:35;;;;;;;1.23;1.13;;;19.20;97.30;;;;;;4977446;28;20413;-93
2022/10/15 11:50:10;;;;;;;1.10;1.00;;;19.20;97.30;;;;;;4975794;28;20432;-93
2022/10/15 11:52:59;;;;;;;1.07;0.97;;;19.20;97.30;;;;;;4977189;28;20416;-92
2022/10/15 11:55:52;;;;;;;1.20;1.10;;;19.10;97.30;;;;;;4978734;28;20425;-92
2022/10/15 11:58:30;;;;;;;1.07;1.00;;;19.00;97.30;;;;;;4977372;28;20425;-93
2022/10/15 12:01:00;;;;;;;0.80;0.70;;;18.90;97.30;;;;;;4977072;28;20468;-93
2022/10/15 12:03:30;;;;;;;1.20;1.10;;;18.90;97.30;;;;;;4961251;28;20472;-92
2022/10/15 12:06:04;;;;;;;0.87;0.80;;;19.00;97.30;;;;;;4977457;28;20441;-92
2022/10/15 12:08:33;;;;;;;1.30;1.20;;;19.00;97.30;;;;;;4977243;28;20489;-91
2022/10/15 12:11:03;;;;;;;1.00;0.90;;;19.10;97.30;;;;;;4977681;28;20451;-92
2022/10/15 12:13:43;;;;;;;6.47;2.27;;;19.10;97.30;;;;;;4977212;28;20514;-92
2022/10/15 12:16:25;;;;;;;1.63;0.90;;;19.20;97.30;;;;;;4985645;28;20428;-91
2022/10/15 12:19:12;;;;;;;1.10;1.00;;;19.20;97.30;;;;;;4996417;28;20430;-92
2022/10/15 12:21:42;;;;;;;1.20;1.10;;;19.30;97.30;;;;;;4997058;28;20428;-93
2022/10/15 12:24:50;;;;;;;1.23;0.90;;;19.40;97.30;;;;;;4997204;28;20477;-94
2022/10/15 12:27:19;;;;;;;0.90;0.90;;;19.40;97.30;;;;;;4997559;28;20514;-93
2022/10/15 12:29:50;;;;;;;0.90;0.80;;;19.40;97.30;;;;;;4996572;28;20428;-92
2022/10/15 12:32:24;;;;;;;1.20;1.13;;;19.40;97.30;;;;;;4997607;28;20926;-93
2022/10/15 12:35:02;;;;;;;1.90;1.13;;;19.50;97.30;;;;;;4996401;28;20474;-91
2022/10/15 12:37:34;;;;;;;1.23;1.20;;;19.60;97.30;;;;;;5014906;28;20408;-91
2022/10/15 12:40:26;;;;;;;1.03;1.00;;;19.70;97.30;;;;;;4997552;28;20451;-93
2022/10/15 12:43:10;;;;;;;0.90;0.80;;;20.10;97.30;;;;;;4999063;28;20499;-92
2022/10/15 12:46:00;;;;;;;1.20;1.10;;;20.70;95.70;;;;;;4999468;28;20941;-93
2022/10/15 12:48:31;;;;;;;0.90;0.80;;;21.10;95.10;;;;;;4998966;28;20503;-93
2022/10/15 12:51:15;;;;;;;1.10;1.00;;;21.40;93.90;;;;;;5000117;28;20420;-93
2022/10/15 12:53:45;;;;;;;1.10;1.00;;;21.30;93.50;;;;;;5009723;28;20604;-92
2022/10/15 12:56:16;;;;;;;1.10;1.00;;;21.00;93.70;;;;;;4994165;28;20518;-92
2022/10/15 12:58:48;;;;;;;1.50;1.10;;;20.80;94.60;;;;;;5001920;28;20416;-92
2022/10/15 13:01:13;;;;;;;1.03;0.93;;;20.70;95.40;;;;;;5002057;28;20460;-93
2022/10/15 13:03:48;;;;;;;1.10;1.00;;;20.60;95.30;;;;;;5002614;28;20443;-91
2022/10/15 13:06:21;;;;;;;1.00;0.90;;;20.50;95.50;;;;;;5001792;28;20176;-91
2022/10/15 13:09:10;;;;;;;1.00;0.90;;;20.30;96.00;;;;;;5004912;28;20444;-93
2022/10/15 13:11:43;;;;;;;1.00;0.90;;;20.20;96.40;;;;;;5003691;28;20412;-94
2022/10/15 13:14:27;;;;;;;1.30;1.00;;;20.10;96.40;;;;;;5019475;28;20442;-93
2022/10/15 13:16:54;;;;;;;1.00;0.83;;;20.00;96.60;;;;;;4989479;28;20806;-92
2022/10/15 13:19:31;;;;;;;1.10;1.00;;;19.80;96.50;;;;;;4984335;28;20719;-94